Terminal Aerodrome Forecast
Issued by NWS

Home | Current Version | Previous Version | Text Only | Print | Product List | Glossary On
Versions: 1 2 3 4 5 6 7 8 9 10 11 12 13 14 15
000
FTUS45 KTFX 231700
TAFBZN
TAF
KBZN 231723Z 2318/2418 VRB05KT P6SM OVC090
     FM232000 24012KT P6SM OVC100
     FM240200 17006KT P6SM VCSH SCT060 OVC080=

USA.gov is the U.S. government's official web portal to all federal, state and local government web resources and services.